Bondurant, Wyoming
Current Conditions -  °F | °C
As of 2:51 PM on Monday 20 Oct 2014 (Local Time) from KJAC Reporting Station
Clear Clear  
Wind Chill: 66°   Ceiling: Unl
Heat Index: 66°   Visibility: 10mi
Dew Point: 30°   Wind: 7mph
Humidity: 26%   Direction: 170°S
Pressure: 30.08"   Gusts: NA
Location:  43.2°N, 110.41°W
Report Text: KJAC 202051Z 17006KT 10SM CLR 19/M01 A3008
Loading
Personal Weather Stations






























Interactive Weather Map
Tropical Storm Tracking
New forecast layout! Learn more

10-Day Weather Forecast

Advertisements
Track Severe Weather on mobile